Time;durP1;ratioP1;P1;durP2;ratioP2;P2;SDS_P1;SDS_P2;PMS_P1;PMS_P2;Temp;Humidity;BMP_temperature;BMP_pressure;BME280_temperature;BME280_humidity;BME280_pressure;Samples;Min_cycle;Max_cycle;Signal;HPM_P1;HPM_P2
2023/08/01 00:00:50;;;;;;;9.95;4.38;;;16.90;99.90;;;;;;5055347;28;20114;-68
2023/08/01 00:03:15;;;;;;;7.93;4.15;;;16.80;99.90;;;;;;5055549;28;20393;-68
2023/08/01 00:05:44;;;;;;;9.05;4.18;;;16.80;99.90;;;;;;5055447;28;20045;-68
2023/08/01 00:08:14;;;;;;;4.72;3.00;;;16.90;99.90;;;;;;5055261;28;20045;-69
2023/08/01 00:10:42;;;;;;;10.85;4.40;;;16.80;99.90;;;;;;5055807;28;20044;-69
2023/08/01 00:13:08;;;;;;;7.18;3.78;;;16.80;99.90;;;;;;5055343;28;20044;-69
2023/08/01 00:15:35;;;;;;;10.38;4.60;;;16.80;99.90;;;;;;5055420;28;20439;-70
2023/08/01 00:18:00;;;;;;;9.85;4.53;;;16.70;99.90;;;;;;5055177;28;20048;-69
2023/08/01 00:20:26;;;;;;;9.68;3.67;;;16.70;99.90;;;;;;5055449;28;20503;-69
2023/08/01 00:22:52;;;;;;;8.10;3.97;;;16.70;99.90;;;;;;5055405;28;20450;-69
2023/08/01 00:25:18;;;;;;;12.93;5.07;;;16.80;99.90;;;;;;5055389;28;20423;-70
2023/08/01 00:27:44;;;;;;;10.45;4.53;;;16.70;99.90;;;;;;5054920;28;20056;-69
2023/08/01 00:30:10;;;;;;;8.05;4.40;;;16.80;99.90;;;;;;5055052;28;20076;-69
2023/08/01 00:32:36;;;;;;;6.38;3.97;;;16.80;99.90;;;;;;5054863;28;20037;-70
2023/08/01 00:35:03;;;;;;;9.70;4.97;;;16.90;99.90;;;;;;5055566;28;20052;-69
2023/08/01 00:37:28;;;;;;;6.55;4.07;;;16.80;99.90;;;;;;5054880;28;20580;-67
2023/08/01 00:39:54;;;;;;;10.15;5.22;;;16.80;99.90;;;;;;5055282;28;20057;-68
2023/08/01 00:42:20;;;;;;;6.90;3.50;;;16.70;99.90;;;;;;5036966;28;20072;-67
2023/08/01 00:44:47;;;;;;;6.07;3.60;;;16.60;99.90;;;;;;5055455;28;20111;-67
2023/08/01 00:47:13;;;;;;;6.13;3.58;;;16.60;99.90;;;;;;5054483;28;20112;-67
2023/08/01 00:49:39;;;;;;;3.83;2.85;;;16.60;99.90;;;;;;5054554;28;20138;-67
2023/08/01 00:52:06;;;;;;;7.15;3.53;;;16.50;99.90;;;;;;5054666;28;20045;-67
2023/08/01 00:54:36;;;;;;;6.88;2.90;;;16.50;99.90;;;;;;5053576;28;20577;-67
2023/08/01 00:57:05;;;;;;;5.38;4.18;;;16.40;99.90;;;;;;5054550;28;20053;-67
2023/08/01 00:59:32;;;;;;;7.53;3.17;;;16.40;99.90;;;;;;5054447;28;20045;-67
2023/08/01 01:01:59;;;;;;;5.63;3.13;;;16.40;99.90;;;;;;5054243;28;20055;-68
2023/08/01 01:04:25;;;;;;;5.97;2.97;;;16.40;99.90;;;;;;5036490;28;20053;-67
2023/08/01 01:06:59;;;;;;;9.38;3.53;;;16.40;99.90;;;;;;5054410;28;20056;-67
2023/08/01 01:09:27;;;;;;;;;;;16.30;99.90;;;;;;5054699;28;20049;-67
2023/08/01 01:11:53;;;;;;;6.82;3.83;;;16.20;99.90;;;;;;5054344;28;20012;-68
2023/08/01 01:14:18;;;;;;;5.68;3.70;;;16.30;99.90;;;;;;5054281;28;20604;-67
2023/08/01 01:16:44;;;;;;;7.53;4.43;;;16.30;99.90;;;;;;5054114;28;20508;-67
2023/08/01 01:19:10;;;;;;;6.63;3.65;;;16.20;99.90;;;;;;5054156;28;20081;-67
2023/08/01 01:21:38;;;;;;;5.22;3.20;;;16.20;99.90;;;;;;5054714;28;20049;-68
2023/08/01 01:24:06;;;;;;;5.00;3.45;;;16.20;99.90;;;;;;5054060;28;20052;-67
2023/08/01 01:26:33;;;;;;;6.38;3.15;;;16.20;99.90;;;;;;5054244;28;20064;-69
2023/08/01 01:29:00;;;;;;;11.38;3.95;;;16.20;99.90;;;;;;5054583;28;20049;-67
2023/08/01 01:31:26;;;;;;;5.90;3.92;;;16.20;99.90;;;;;;5036453;28;20092;-67
2023/08/01 01:33:53;;;;;;;5.88;3.55;;;16.20;99.90;;;;;;5053855;28;20045;-67
2023/08/01 01:36:19;;;;;;;7.95;4.65;;;16.10;99.90;;;;;;5054077;28;20047;-68
2023/08/01 01:38:44;;;;;;;6.60;3.97;;;16.10;99.90;;;;;;5036390;28;20053;-67
2023/08/01 01:41:11;;;;;;;6.60;3.53;;;16.10;99.90;;;;;;5053732;28;20500;-67
2023/08/01 01:43:37;;;;;;;4.32;3.13;;;16.10;99.90;;;;;;5053573;28;20053;-68
2023/08/01 01:46:03;;;;;;;8.40;4.35;;;16.10;99.90;;;;;;5053599;28;20490;-67
2023/08/01 01:48:29;;;;;;;5.97;3.38;;;16.00;99.90;;;;;;5053481;28;20052;-68
2023/08/01 01:50:55;;;;;;;6.45;3.58;;;16.00;99.90;;;;;;5054307;28;20045;-67
2023/08/01 01:53:20;;;;;;;8.38;4.68;;;16.00;99.90;;;;;;5054090;28;20378;-68
2023/08/01 01:55:46;;;;;;;5.20;3.60;;;16.10;99.90;;;;;;5053712;28;20072;-68
2023/08/01 01:58:12;;;;;;;7.50;3.80;;;16.10;99.90;;;;;;5035830;28;20090;-68
2023/08/01 02:00:37;;;;;;;6.47;3.60;;;16.10;99.90;;;;;;5053604;28;20045;-68
2023/08/01 02:03:03;;;;;;;4.75;3.30;;;16.10;99.90;;;;;;5052895;28;20095;-68
2023/08/01 02:05:29;;;;;;;5.82;3.75;;;16.10;99.90;;;;;;5052790;28;20049;-67
2023/08/01 02:07:55;;;;;;;6.57;3.42;;;16.00;99.90;;;;;;5053553;28;20123;-67
2023/08/01 02:10:21;;;;;;;7.38;2.95;;;16.00;99.90;;;;;;5034919;28;20049;-67
2023/08/01 02:12:47;;;;;;;4.43;2.85;;;16.00;99.90;;;;;;5053125;28;20125;-68
2023/08/01 02:15:13;;;;;;;5.63;3.40;;;15.90;99.90;;;;;;5035217;28;20052;-68
2023/08/01 02:17:39;;;;;;;5.93;3.30;;;15.90;99.90;;;;;;5053189;28;20450;-68
2023/08/01 02:20:05;;;;;;;7.75;3.53;;;16.00;99.90;;;;;;5052884;28;20045;-68
2023/08/01 02:22:32;;;;;;;7.78;3.47;;;15.90;99.90;;;;;;5053225;28;20138;-68
2023/08/01 02:24:58;;;;;;;3.95;3.00;;;15.90;99.90;;;;;;5052551;28;20100;-69
2023/08/01 02:27:24;;;;;;;5.05;2.95;;;15.90;99.90;;;;;;5052771;28;20453;-68
2023/08/01 02:29:50;;;;;;;5.00;3.08;;;15.80;99.90;;;;;;5052739;28;20049;-69
2023/08/01 02:32:16;;;;;;;6.07;3.45;;;15.80;99.90;;;;;;5052969;28;20115;-69
2023/08/01 02:34:42;;;;;;;6.18;3.58;;;15.70;99.90;;;;;;5052731;28;20508;-68
2023/08/01 02:37:08;;;;;;;8.45;3.38;;;15.70;99.90;;;;;;5052940;28;20049;-68
2023/08/01 02:39:35;;;;;;;6.60;3.65;;;15.60;99.90;;;;;;5052479;28;20098;-68
2023/08/01 02:42:01;;;;;;;3.50;2.60;;;15.60;99.90;;;;;;5052748;28;20044;-69
2023/08/01 02:44:28;;;;;;;5.53;3.30;;;15.60;99.90;;;;;;5052361;28;20553;-69
2023/08/01 02:46:54;;;;;;;11.68;3.58;;;15.50;99.90;;;;;;5052489;28;20041;-67
2023/08/01 02:49:20;;;;;;;7.90;3.63;;;15.50;99.90;;;;;;5052834;28;20049;-68
2023/08/01 02:51:45;;;;;;;5.00;3.70;;;15.50;99.90;;;;;;5052806;28;20120;-68
2023/08/01 02:54:11;;;;;;;7.78;4.15;;;15.50;99.90;;;;;;5034650;28;20041;-68
2023/08/01 02:56:41;;;;;;;8.43;3.80;;;15.40;99.90;;;;;;5051963;28;20044;-67
2023/08/01 02:59:10;;;;;;;6.18;2.85;;;15.40;99.90;;;;;;5053065;28;20068;-68
2023/08/01 03:01:37;;;;;;;5.25;3.53;;;15.30;99.90;;;;;;5052768;28;20057;-67
2023/08/01 03:04:04;;;;;;;5.68;3.72;;;15.30;99.90;;;;;;5018496;28;20048;-68
2023/08/01 03:06:33;;;;;;;7.15;3.05;;;15.30;99.90;;;;;;5035064;28;20109;-68
2023/08/01 03:08:59;;;;;;;7.57;4.07;;;15.30;99.90;;;;;;5052291;28;20052;-68
2023/08/01 03:11:25;;;;;;;5.97;3.47;;;15.30;99.90;;;;;;5052251;28;20053;-67
2023/08/01 03:13:51;;;;;;;10.98;4.20;;;15.30;99.90;;;;;;5052227;28;20450;-68
2023/08/01 03:16:17;;;;;;;7.05;3.58;;;15.30;99.90;;;;;;5052326;28;20044;-68
2023/08/01 03:18:43;;;;;;;6.57;4.43;;;15.30;99.90;;;;;;5038565;28;20052;-68
2023/08/01 03:21:09;;;;;;;9.38;4.22;;;15.40;99.90;;;;;;5056893;28;20044;-69
2023/08/01 03:23:35;;;;;;;7.03;4.00;;;15.40;99.90;;;;;;5055954;28;20049;-68
2023/08/01 03:26:00;;;;;;;10.20;4.97;;;15.50;99.90;;;;;;5056151;28;20044;-69
2023/08/01 03:28:26;;;;;;;6.82;4.05;;;15.50;99.90;;;;;;5056286;28;20045;-68
2023/08/01 03:30:53;;;;;;;9.80;4.65;;;15.50;99.90;;;;;;5038469;28;20128;-68
2023/08/01 03:33:22;;;;;;;7.18;4.50;;;15.50;99.90;;;;;;5056335;28;20083;-68
2023/08/01 03:35:48;;;;;;;9.35;4.50;;;15.60;99.90;;;;;;5055663;28;20479;-68
2023/08/01 03:38:13;;;;;;;9.63;5.03;;;15.60;99.90;;;;;;5038604;28;20123;-68
2023/08/01 03:40:39;;;;;;;13.20;6.18;;;15.60;99.90;;;;;;5055955;28;20083;-68
2023/08/01 03:43:06;;;;;;;9.38;5.43;;;15.70;99.90;;;;;;5056275;28;20041;-68
2023/08/01 03:45:32;;;;;;;10.13;4.93;;;15.70;99.90;;;;;;5021778;28;20075;-68
2023/08/01 03:47:58;;;;;;;10.02;5.00;;;15.70;99.90;;;;;;5038612;28;20045;-68
2023/08/01 03:50:25;;;;;;;7.70;4.53;;;15.70;99.90;;;;;;5038053;28;20052;-68
2023/08/01 03:52:51;;;;;;;8.55;4.82;;;15.70;99.90;;;;;;5055943;28;20061;-68
2023/08/01 03:55:17;;;;;;;10.27;5.15;;;15.70;99.90;;;;;;5038503;28;20523;-68
2023/08/01 03:57:43;;;;;;;8.88;4.90;;;15.70;99.90;;;;;;5038275;28;20068;-67
2023/08/01 04:00:13;;;;;;;7.97;4.75;;;15.70;99.90;;;;;;5038145;28;20434;-68
2023/08/01 04:02:42;;;;;;;10.48;5.03;;;15.70;99.90;;;;;;5055115;28;20121;-68
2023/08/01 04:05:08;;;;;;;9.65;4.95;;;15.80;99.90;;;;;;5055412;28;20045;-68
2023/08/01 04:07:37;;;;;;;9.13;4.82;;;15.70;99.90;;;;;;5055397;28;20056;-68
2023/08/01 04:10:04;;;;;;;10.02;4.80;;;15.70;99.90;;;;;;5037563;28;20083;-67
2023/08/01 04:12:34;;;;;;;7.43;3.78;;;15.70;99.90;;;;;;5021253;28;20094;-68
2023/08/01 04:15:00;;;;;;;9.35;4.22;;;15.70;99.90;;;;;;5055770;28;20049;-67
2023/08/01 04:17:26;;;;;;;6.70;3.90;;;15.70;99.90;;;;;;5037577;28;20049;-68
2023/08/01 04:19:52;;;;;;;6.20;3.63;;;15.70;99.90;;;;;;5055101;28;20092;-68
2023/08/01 04:22:18;;;;;;;8.85;4.07;;;15.70;99.90;;;;;;5055201;28;20064;-68
2023/08/01 04:24:44;;;;;;;5.13;3.38;;;15.70;99.90;;;;;;5054673;28;20053;-68
2023/08/01 04:27:10;;;;;;;7.93;3.92;;;15.70;99.90;;;;;;5038102;28;20057;-67
2023/08/01 04:29:35;;;;;;;4.75;2.88;;;15.70;99.90;;;;;;5054702;28;20449;-68
2023/08/01 04:32:01;;;;;;;5.57;3.83;;;15.70;99.90;;;;;;5054962;28;20130;-67
2023/08/01 04:34:27;;;;;;;8.07;4.07;;;15.80;99.90;;;;;;5037213;28;20079;-67
2023/08/01 04:36:53;;;;;;;9.77;3.42;;;15.70;99.90;;;;;;5055032;28;20052;-68
2023/08/01 04:39:18;;;;;;;4.70;3.22;;;15.70;99.90;;;;;;5037407;28;20084;-68
2023/08/01 04:41:44;;;;;;;5.57;3.20;;;15.70;99.90;;;;;;5055289;28;20053;-67
2023/08/01 04:44:09;;;;;;;4.57;2.42;;;15.80;99.90;;;;;;5054701;28;20118;-68
2023/08/01 04:46:35;;;;;;;3.65;2.35;;;15.80;99.90;;;;;;5054832;28;20044;-67
2023/08/01 04:49:01;;;;;;;6.63;2.70;;;15.80;99.90;;;;;;5054687;28;20079;-68
2023/08/01 04:51:27;;;;;;;6.30;2.65;;;15.80;99.90;;;;;;5054648;28;20474;-67
2023/08/01 04:53:53;;;;;;;13.65;3.35;;;15.70;99.90;;;;;;5036666;28;20120;-67
2023/08/01 04:56:18;;;;;;;4.40;2.50;;;15.70;99.90;;;;;;5036904;28;20171;-67
2023/08/01 04:58:44;;;;;;;4.75;2.20;;;15.70;99.90;;;;;;5054484;28;20052;-68
2023/08/01 05:01:10;;;;;;;5.97;2.72;;;15.60;99.90;;;;;;5054475;28;20053;-67
2023/08/01 05:03:35;;;;;;;4.03;2.47;;;15.60;99.90;;;;;;5054227;28;20049;-67
2023/08/01 05:06:01;;;;;;;4.72;2.22;;;15.60;99.90;;;;;;5054433;28;20040;-67
2023/08/01 05:08:27;;;;;;;4.13;2.45;;;15.50;99.90;;;;;;5054551;28;20045;-67
2023/08/01 05:10:52;;;;;;;4.43;1.95;;;15.50;99.90;;;;;;5020034;28;20477;-67
2023/08/01 05:13:18;;;;;;;3.03;2.13;;;15.50;99.90;;;;;;5036756;28;20056;-68
2023/08/01 05:15:47;;;;;;;3.20;1.98;;;15.50;99.90;;;;;;5054655;28;20103;-68
2023/08/01 05:18:14;;;;;;;3.40;2.38;;;15.60;99.90;;;;;;5054751;28;20049;-64
2023/08/01 05:20:39;;;;;;;9.10;2.28;;;15.70;99.90;;;;;;5053934;28;20120;-67
2023/08/01 05:23:05;;;;;;;4.18;2.15;;;15.80;99.90;;;;;;5036411;28;20119;-67
2023/08/01 05:25:31;;;;;;;3.05;1.75;;;16.00;99.90;;;;;;5054022;28;20546;-68
2023/08/01 05:27:56;;;;;;;1.73;1.45;;;16.00;99.90;;;;;;5037008;28;20061;-67
2023/08/01 05:30:22;;;;;;;2.90;1.65;;;16.10;99.90;;;;;;5054384;28;20045;-69
2023/08/01 05:32:48;;;;;;;2.90;1.65;;;16.20;99.90;;;;;;5035945;28;20124;-68
2023/08/01 05:35:14;;;;;;;3.47;1.90;;;16.20;99.90;;;;;;5036620;28;20437;-69
2023/08/01 05:37:39;;;;;;;4.15;2.40;;;16.20;99.90;;;;;;5035635;28;20385;-68
2023/08/01 05:40:06;;;;;;;4.65;1.58;;;16.30;99.90;;;;;;5052551;28;20049;-68
2023/08/01 05:42:31;;;;;;;3.08;2.03;;;16.20;99.90;;;;;;5053231;28;20045;-69
2023/08/01 05:44:57;;;;;;;4.50;2.17;;;16.30;99.90;;;;;;5036053;28;20056;-68
2023/08/01 05:47:23;;;;;;;3.72;2.17;;;16.30;99.90;;;;;;5036044;28;20088;-68
2023/08/01 05:49:49;;;;;;;3.97;2.00;;;16.40;99.90;;;;;;5053396;28;20071;-68
2023/08/01 05:52:14;;;;;;;4.63;1.83;;;16.50;99.90;;;;;;5053431;28;20067;-68
2023/08/01 05:54:40;;;;;;;3.40;1.90;;;16.60;99.90;;;;;;5053264;28;20474;-69
2023/08/01 05:57:07;;;;;;;2.35;1.80;;;16.70;99.90;;;;;;5053158;28;20052;-69
2023/08/01 05:59:33;;;;;;;3.53;1.90;;;16.70;99.90;;;;;;5053192;28;20056;-67
2023/08/01 06:01:58;;;;;;;3.38;2.10;;;16.80;99.90;;;;;;5035628;28;20040;-68
2023/08/01 06:04:24;;;;;;;3.60;1.80;;;16.90;99.90;;;;;;5052987;28;20179;-68
2023/08/01 06:06:50;;;;;;;3.42;2.00;;;17.00;99.90;;;;;;5035820;28;20045;-68
2023/08/01 06:09:15;;;;;;;4.55;2.08;;;17.10;99.90;;;;;;5053493;28;20067;-69
2023/08/01 06:11:41;;;;;;;6.32;2.20;;;17.30;99.90;;;;;;5052969;28;20450;-68
2023/08/01 06:14:07;;;;;;;3.55;1.50;;;17.30;99.90;;;;;;5035710;28;20462;-68
2023/08/01 06:16:33;;;;;;;3.90;2.13;;;17.20;99.90;;;;;;5052750;28;20044;-68
2023/08/01 06:18:59;;;;;;;2.08;1.63;;;17.30;99.90;;;;;;5052685;28;20046;-68
2023/08/01 06:21:25;;;;;;;2.05;1.60;;;17.20;99.90;;;;;;5052730;28;20084;-68
2023/08/01 06:23:50;;;;;;;3.97;2.15;;;17.30;99.90;;;;;;5035512;28;20045;-68
2023/08/01 06:26:16;;;;;;;7.05;2.33;;;17.20;99.90;;;;;;5053008;28;20487;-68
2023/08/01 06:28:42;;;;;;;6.70;2.15;;;17.20;99.90;;;;;;5052722;28;20110;-68
2023/08/01 06:31:08;;;;;;;3.25;1.98;;;17.10;99.90;;;;;;5052711;28;20045;-69
2023/08/01 06:33:33;;;;;;;4.63;2.08;;;17.00;99.90;;;;;;5052510;28;20128;-67
2023/08/01 06:35:59;;;;;;;3.35;1.63;;;17.00;99.90;;;;;;5052440;28;20047;-68
2023/08/01 06:38:25;;;;;;;3.42;2.30;;;16.80;99.90;;;;;;5052578;28;20106;-67
2023/08/01 06:40:50;;;;;;;4.95;2.08;;;16.80;99.90;;;;;;5052703;28;20456;-67
2023/08/01 06:43:16;;;;;;;4.25;2.42;;;16.70;99.90;;;;;;5052180;28;20106;-69
2023/08/01 06:45:42;;;;;;;3.95;2.00;;;16.70;99.90;;;;;;5052522;28;20041;-67
2023/08/01 06:48:08;;;;;;;3.05;2.05;;;16.80;99.90;;;;;;5052344;28;20438;-67
2023/08/01 06:50:34;;;;;;;4.53;2.15;;;16.80;99.90;;;;;;5034528;28;20057;-67
2023/08/01 06:53:00;;;;;;;4.10;2.42;;;16.90;99.90;;;;;;5052081;28;20373;-67
2023/08/01 06:55:26;;;;;;;3.97;2.22;;;16.90;99.90;;;;;;5034140;28;20424;-68
2023/08/01 06:57:52;;;;;;;5.80;2.58;;;16.90;99.90;;;;;;5052372;28;20053;-67
2023/08/01 07:00:18;;;;;;;3.47;2.65;;;16.90;99.90;;;;;;5051987;28;20045;-68
2023/08/01 07:02:44;;;;;;;3.40;2.10;;;17.00;99.90;;;;;;5052220;28;20041;-67
2023/08/01 07:05:09;;;;;;;3.60;2.03;;;17.00;99.90;;;;;;5052085;28;20124;-67
2023/08/01 07:07:35;;;;;;;4.88;2.42;;;17.20;99.90;;;;;;5051677;28;20051;-67
2023/08/01 07:10:01;;;;;;;2.95;2.35;;;17.30;99.90;;;;;;5052049;28;20132;-68
2023/08/01 07:12:27;;;;;;;4.15;2.20;;;17.50;99.90;;;;;;5051990;28;20055;-67
2023/08/01 07:14:52;;;;;;;4.40;2.22;;;17.60;99.90;;;;;;5051887;28;20076;-68
2023/08/01 07:17:18;;;;;;;5.28;2.30;;;17.70;99.90;;;;;;5052053;28;20060;-68
2023/08/01 07:19:44;;;;;;;4.10;2.15;;;17.80;99.90;;;;;;5052138;28;20047;-68
2023/08/01 07:22:09;;;;;;;4.55;2.15;;;17.80;99.90;;;;;;5052042;28;20475;-67
2023/08/01 07:24:35;;;;;;;3.50;2.05;;;17.80;99.90;;;;;;5033885;28;20440;-68
2023/08/01 07:27:01;;;;;;;5.43;2.58;;;17.90;99.90;;;;;;5051851;28;20049;-67
2023/08/01 07:29:26;;;;;;;7.07;2.25;;;17.80;99.90;;;;;;5052132;28;20037;-69
2023/08/01 07:31:52;;;;;;;3.10;1.48;;;17.70;99.90;;;;;;5052065;28;20040;-68
2023/08/01 07:34:18;;;;;;;3.85;1.88;;;17.70;99.90;;;;;;5051761;28;20041;-69
2023/08/01 07:36:45;;;;;;;5.00;2.35;;;17.60;99.90;;;;;;5051515;28;20115;-68
2023/08/01 07:39:11;;;;;;;2.45;1.80;;;17.50;99.90;;;;;;5051990;28;20045;-68
2023/08/01 07:41:36;;;;;;;4.95;2.03;;;17.50;99.90;;;;;;5051949;28;20055;-67
2023/08/01 07:44:05;;;;;;;2.08;1.50;;;17.50;99.90;;;;;;5052119;28;20044;-68
2023/08/01 07:46:32;;;;;;;4.55;2.00;;;17.40;99.90;;;;;;5051533;28;20084;-68
2023/08/01 07:48:59;;;;;;;3.22;2.30;;;17.40;99.90;;;;;;5034096;28;20551;-67
2023/08/01 07:51:25;;;;;;;3.45;1.92;;;17.40;99.90;;;;;;5051399;28;20533;-67
2023/08/01 07:53:53;;;;;;;3.47;1.63;;;17.40;99.90;;;;;;5051802;28;20127;-67
2023/08/01 07:56:19;;;;;;;4.68;2.10;;;17.50;99.90;;;;;;5051295;28;20044;-67
2023/08/01 07:58:45;;;;;;;3.25;1.40;;;17.50;99.90;;;;;;5051389;28;20465;-67
2023/08/01 08:01:11;;;;;;;1.95;1.52;;;17.50;99.90;;;;;;5051229;28;20040;-67
2023/08/01 08:03:36;;;;;;;2.30;1.27;;;17.40;99.90;;;;;;5052757;28;20048;-67
2023/08/01 08:06:03;;;;;;;3.67;1.70;;;17.30;99.90;;;;;;5055089;28;20052;-67
2023/08/01 08:08:30;;;;;;;5.75;1.83;;;17.20;99.90;;;;;;5055599;28;20469;-68
2023/08/01 08:10:55;;;;;;;3.72;1.90;;;17.10;99.90;;;;;;5055604;28;20108;-66
2023/08/01 08:13:21;;;;;;;3.05;1.80;;;17.00;99.90;;;;;;5055159;28;20450;-67
2023/08/01 08:15:47;;;;;;;2.83;2.08;;;16.90;99.90;;;;;;5055158;28;20048;-67
2023/08/01 08:18:13;;;;;;;3.25;1.45;;;17.00;99.90;;;;;;5055781;28;20049;-67
2023/08/01 08:20:44;;;;;;;16.55;2.60;;;17.30;99.90;;;;;;5037838;28;20103;-67
2023/08/01 08:23:10;;;;;;;3.22;2.08;;;17.70;99.90;;;;;;5054980;28;20041;-65
2023/08/01 08:25:36;;;;;;;3.03;1.75;;;17.80;99.90;;;;;;5054901;28;20053;-66
2023/08/01 08:28:03;;;;;;;2.28;1.30;;;17.90;99.90;;;;;;5054765;28;20419;-69
2023/08/01 08:30:28;;;;;;;5.65;2.45;;;17.90;99.90;;;;;;5054965;28;20037;-68
2023/08/01 08:32:54;;;;;;;4.20;2.15;;;17.80;99.90;;;;;;5037245;28;20106;-66
2023/08/01 08:35:20;;;;;;;5.68;1.70;;;17.70;99.90;;;;;;5055042;28;20045;-67
2023/08/01 08:37:45;;;;;;;4.00;1.70;;;17.60;99.90;;;;;;5055317;28;20535;-65
2023/08/01 08:40:13;;;;;;;3.35;1.50;;;17.50;99.90;;;;;;5055091;28;20462;-67
2023/08/01 08:42:39;;;;;;;4.90;1.50;;;17.40;99.90;;;;;;5054647;28;20049;-65
2023/08/01 08:45:06;;;;;;;2.30;1.35;;;17.30;99.90;;;;;;5037058;28;20060;-68
2023/08/01 08:47:37;;;;;;;2.17;1.80;;;17.20;99.90;;;;;;5054918;28;20057;-66
2023/08/01 08:50:04;;;;;;;3.88;1.70;;;17.00;99.90;;;;;;5054889;28;20052;-68
2023/08/01 08:52:30;;;;;;;1.95;1.50;;;17.20;99.90;;;;;;5054477;28;20049;-67
2023/08/01 08:54:57;;;;;;;4.88;2.45;;;17.20;99.90;;;;;;5037531;28;20049;-67
2023/08/01 08:57:23;;;;;;;2.50;1.30;;;17.20;99.90;;;;;;5054714;28;20149;-67
2023/08/01 08:59:50;;;;;;;2.97;1.80;;;17.20;99.90;;;;;;5054489;28;20052;-66
2023/08/01 09:02:17;;;;;;;1.48;1.35;;;17.20;99.90;;;;;;5054273;28;20053;-67
2023/08/01 09:04:42;;;;;;;3.35;1.70;;;17.20;99.90;;;;;;5054169;28;20138;-67
2023/08/01 09:07:11;;;;;;;4.25;1.77;;;17.30;99.90;;;;;;5054252;28;20482;-67
2023/08/01 09:09:37;;;;;;;3.58;1.50;;;17.30;99.90;;;;;;5054403;28;20146;-66
2023/08/01 09:12:03;;;;;;;3.15;1.88;;;17.60;99.90;;;;;;5036829;28;20392;-66
2023/08/01 09:14:29;;;;;;;2.17;1.40;;;17.70;99.90;;;;;;5053220;28;20041;-66
2023/08/01 09:16:55;;;;;;;3.20;1.65;;;17.80;99.90;;;;;;5054158;28;20059;-66
2023/08/01 09:19:23;;;;;;;3.53;1.65;;;18.00;99.90;;;;;;5054095;28;20045;-67
2023/08/01 09:21:50;;;;;;;6.20;1.63;;;18.20;99.90;;;;;;5054036;28;20052;-66
2023/08/01 09:24:18;;;;;;;3.33;1.95;;;18.50;99.90;;;;;;5036342;28;20045;-67
2023/08/01 09:26:45;;;;;;;1.80;1.50;;;19.00;99.90;;;;;;5014286;28;20062;-68
2023/08/01 09:29:11;;;;;;;2.10;1.33;;;19.10;99.90;;;;;;5014403;28;20038;-67
2023/08/01 09:31:42;;;;;;;3.88;1.50;;;19.00;99.90;;;;;;5013413;28;20552;-66
2023/08/01 09:34:22;;;;;;;4.40;1.45;;;18.90;99.90;;;;;;5014019;28;20049;-66
2023/08/01 09:36:48;;;;;;;3.92;1.88;;;18.70;99.90;;;;;;5014031;28;20489;-67
2023/08/01 09:39:19;;;;;;;5.05;1.73;;;18.70;99.90;;;;;;5013985;28;20088;-67
2023/08/01 09:41:45;;;;;;;3.83;1.88;;;18.80;99.90;;;;;;5014105;28;20115;-66
2023/08/01 09:44:17;;;;;;;2.72;1.50;;;18.50;99.90;;;;;;5013783;28;20537;-67
2023/08/01 09:46:43;;;;;;;1.50;1.40;;;18.50;99.90;;;;;;5013500;28;20463;-68
2023/08/01 09:49:10;;;;;;;3.20;1.30;;;18.50;99.90;;;;;;5013918;28;20045;-67
2023/08/01 09:51:49;;;;;;;3.50;1.90;;;18.60;99.90;;;;;;5013299;28;20050;-68
2023/08/01 09:54:16;;;;;;;3.05;1.50;;;19.00;99.90;;;;;;5013974;28;20049;-68
2023/08/01 09:56:45;;;;;;;3.53;1.55;;;19.40;99.90;;;;;;5014005;28;20046;-68
2023/08/01 09:59:11;;;;;;;2.78;1.40;;;19.50;99.90;;;;;;5014220;28;20054;-68
2023/08/01 10:01:38;;;;;;;1.85;1.20;;;19.40;99.90;;;;;;5013481;28;20046;-67
2023/08/01 10:04:06;;;;;;;2.05;1.77;;;19.20;99.90;;;;;;5012278;28;20046;-67
2023/08/01 10:06:36;;;;;;;1.33;1.23;;;19.40;99.90;;;;;;5012391;28;20050;-67
2023/08/01 10:09:02;;;;;;;1.52;1.35;;;20.00;99.90;;;;;;4996122;28;20490;-67
2023/08/01 10:11:33;;;;;;;3.88;1.38;;;20.00;99.90;;;;;;5013282;28;20046;-68
2023/08/01 10:14:00;;;;;;;1.58;1.35;;;19.90;99.90;;;;;;5013821;28;20042;-67
2023/08/01 10:16:26;;;;;;;4.70;2.05;;;19.90;99.90;;;;;;5012544;28;20058;-68
2023/08/01 10:18:54;;;;;;;4.53;1.65;;;19.80;99.90;;;;;;5012584;28;20084;-67
2023/08/01 10:21:20;;;;;;;1.90;1.58;;;19.60;99.90;;;;;;5012556;28;20054;-66
2023/08/01 10:23:47;;;;;;;5.45;2.15;;;19.40;99.90;;;;;;5013425;28;20432;-68
2023/08/01 10:26:14;;;;;;;5.40;2.08;;;19.20;99.90;;;;;;5027476;28;20057;-67
2023/08/01 10:28:49;;;;;;;3.95;1.52;;;18.90;99.90;;;;;;5032807;28;20049;-69
2023/08/01 10:31:16;;;;;;;8.63;3.03;;;18.60;99.90;;;;;;5032670;28;20519;-67
2023/08/01 10:33:45;;;;;;;3.20;1.50;;;18.30;99.90;;;;;;5032736;28;20071;-68
2023/08/01 10:36:14;;;;;;;2.85;2.15;;;18.10;99.90;;;;;;5032840;28;20080;-68
2023/08/01 10:39:01;;;;;;;3.15;2.00;;;18.00;99.90;;;;;;5033045;28;20081;-67
2023/08/01 10:41:34;;;;;;;4.60;1.75;;;18.00;99.90;;;;;;5033406;28;20049;-66
2023/08/01 10:44:12;;;;;;;;;;;18.10;99.90;;;;;;5033044;28;20041;-68
2023/08/01 10:46:58;;;;;;;4.32;2.03;;;18.30;99.90;;;;;;5031634;28;20278;-66
2023/08/01 10:49:36;;;;;;;5.35;2.22;;;18.80;99.90;;;;;;5032738;28;20132;-66
2023/08/01 10:52:04;;;;;;;4.10;2.38;;;19.40;99.90;;;;;;5031595;28;20077;-68
2023/08/01 10:54:29;;;;;;;5.47;2.50;;;20.20;99.90;;;;;;5032152;28;20057;-66
2023/08/01 10:57:00;;;;;;;5.40;3.10;;;21.10;99.90;;;;;;5032695;28;20532;-66
2023/08/01 10:59:25;;;;;;;5.93;2.65;;;21.60;99.90;;;;;;5032430;28;20063;-66
2023/08/01 11:01:53;;;;;;;3.22;2.25;;;21.80;99.90;;;;;;5032447;28;20496;-68
2023/08/01 11:04:23;;;;;;;4.47;2.33;;;21.30;99.90;;;;;;5032309;28;20081;-67
2023/08/01 11:06:51;;;;;;;3.47;1.88;;;20.80;99.90;;;;;;5032409;28;20144;-66
2023/08/01 11:09:22;;;;;;;1.95;1.33;;;20.10;99.90;;;;;;5032390;28;20080;-67
2023/08/01 11:11:53;;;;;;;5.07;2.47;;;19.60;99.90;;;;;;5031254;28;20080;-65
2023/08/01 11:14:29;;;;;;;4.68;1.67;;;19.20;99.90;;;;;;5032444;28;20080;-66
2023/08/01 11:16:56;;;;;;;2.10;1.70;;;18.90;99.90;;;;;;5032653;28;20073;-66
2023/08/01 11:19:29;;;;;;;3.42;1.63;;;18.90;99.90;;;;;;5031995;28;20355;-66
2023/08/01 11:21:56;;;;;;;5.22;1.90;;;19.10;99.90;;;;;;5032359;28;20106;-65
2023/08/01 11:24:23;;;;;;;5.03;2.15;;;19.30;99.90;;;;;;5032623;28;20045;-67
2023/08/01 11:26:52;;;;;;;5.35;2.50;;;19.60;99.90;;;;;;5051798;28;20397;-66
2023/08/01 11:29:19;;;;;;;6.75;2.08;;;19.80;99.90;;;;;;5052468;28;20072;-66
2023/08/01 11:31:59;;;;;;;4.43;2.30;;;19.90;99.90;;;;;;5052041;28;20047;-66
2023/08/01 11:34:25;;;;;;;5.32;2.15;;;20.20;99.90;;;;;;5034173;28;20174;-66
2023/08/01 11:36:51;;;;;;;4.78;2.00;;;20.40;99.90;;;;;;5051942;28;20056;-67
2023/08/01 11:39:17;;;;;;;3.35;1.98;;;20.70;99.90;;;;;;5054268;28;20441;-67
2023/08/01 11:41:44;;;;;;;3.55;2.05;;;20.70;99.90;;;;;;5056412;28;20040;-67
2023/08/01 11:44:11;;;;;;;3.78;2.05;;;20.80;99.90;;;;;;5055843;28;20037;-68
2023/08/01 11:46:38;;;;;;;3.88;2.05;;;20.80;99.90;;;;;;5055578;28;20052;-66
2023/08/01 11:49:06;;;;;;;2.97;1.92;;;20.80;99.90;;;;;;5055797;28;20052;-68
2023/08/01 11:51:39;;;;;;;3.33;1.65;;;20.80;99.90;;;;;;5055699;28;20132;-67
2023/08/01 11:54:06;;;;;;;2.28;1.50;;;21.00;99.90;;;;;;5038134;28;20539;-67
2023/08/01 11:56:31;;;;;;;3.95;1.70;;;21.10;99.90;;;;;;5056158;28;20044;-69
2023/08/01 11:58:58;;;;;;;1.83;1.60;;;21.10;99.90;;;;;;5055694;28;20442;-67
2023/08/01 12:01:24;;;;;;;3.35;1.50;;;21.10;99.90;;;;;;5055854;28;20045;-66
2023/08/01 12:03:51;;;;;;;4.90;1.80;;;21.30;99.90;;;;;;5055418;28;20040;-67
2023/08/01 12:06:19;;;;;;;2.97;1.20;;;21.50;99.90;;;;;;5055526;28;20055;-67
2023/08/01 12:08:47;;;;;;;4.20;1.20;;;21.50;99.90;;;;;;5055694;28;20049;-67
2023/08/01 12:11:30;;;;;;;6.18;1.42;;;21.50;99.90;;;;;;5055513;28;20459;-67
2023/08/01 12:14:06;;;;;;;4.03;1.60;;;21.30;99.90;;;;;;5055435;28;20064;-68
2023/08/01 12:16:32;;;;;;;2.95;1.75;;;21.40;99.90;;;;;;5055276;28;20113;-67
2023/08/01 12:18:58;;;;;;;3.83;1.98;;;21.40;99.90;;;;;;5055272;28;20175;-68
2023/08/01 12:21:24;;;;;;;2.10;1.50;;;21.20;99.90;;;;;;5055330;28;20049;-67
2023/08/01 12:23:49;;;;;;;6.53;2.00;;;21.10;99.90;;;;;;5055411;28;20041;-68
2023/08/01 12:26:15;;;;;;;6.47;1.98;;;21.10;99.90;;;;;;5054996;28;20056;-67
2023/08/01 12:28:41;;;;;;;6.53;2.10;;;21.10;99.90;;;;;;5037535;28;20136;-68
2023/08/01 12:31:06;;;;;;;4.35;1.70;;;21.10;99.90;;;;;;5055073;28;20436;-67
2023/08/01 12:33:33;;;;;;;3.78;1.90;;;21.00;99.90;;;;;;5037379;28;20106;-67
2023/08/01 12:36:00;;;;;;;2.72;1.75;;;20.90;99.90;;;;;;5055159;28;20512;-67
2023/08/01 12:38:26;;;;;;;5.03;1.90;;;20.90;99.90;;;;;;5054867;28;20059;-67
2023/08/01 12:40:52;;;;;;;4.05;1.90;;;20.90;99.90;;;;;;5055064;28;20092;-67
2023/08/01 12:43:17;;;;;;;4.88;1.65;;;20.80;99.90;;;;;;5037090;28;20084;-67
2023/08/01 12:45:43;;;;;;;3.53;1.70;;;20.60;99.90;;;;;;5054461;28;20045;-68